createdAt,value
2018-12-22T00:02:54.703Z,95275.18
2018-12-22T00:05:22.930Z,95302.14
2018-12-22T00:07:51.327Z,95292.72
2018-12-22T00:10:19.607Z,95278.89
2018-12-22T00:12:47.988Z,95276.97
2018-12-22T00:15:16.212Z,95283.89
2018-12-22T00:17:44.443Z,95270.30
2018-12-22T00:20:12.943Z,95266.32
2018-12-22T00:22:41.238Z,95286.62
2018-12-22T00:25:09.567Z,95269.80
2018-12-22T00:27:38.834Z,95279.12
2018-12-22T00:30:08.271Z,95283.13
2018-12-22T00:32:36.532Z,95274.87
2018-12-22T00:35:06.135Z,95281.30
2018-12-22T00:37:34.450Z,95270.61
2018-12-22T00:40:02.753Z,95284.73
2018-12-22T00:42:31.255Z,95290.89
2018-12-22T00:44:59.552Z,95288.98
2018-12-22T00:47:27.791Z,95294.28
2018-12-22T00:49:56.078Z,95296.67
2018-12-22T00:52:24.463Z,95313.98
2018-12-22T00:54:52.899Z,95298.27
2018-12-22T00:57:21.183Z,95302.70
2018-12-22T00:59:49.431Z,95297.27
2018-12-22T01:02:17.774Z,95296.99
2018-12-22T01:04:46.105Z,95301.78
2018-12-22T01:07:14.458Z,95309.84
2018-12-22T01:09:42.711Z,95294.06
2018-12-22T01:12:10.971Z,95291.89
2018-12-22T01:14:39.398Z,95293.47
2018-12-22T01:17:07.771Z,95301.91
2018-12-22T01:19:36.429Z,95320.89
2018-12-22T01:22:04.955Z,95307.63
2018-12-22T01:24:33.194Z,95331.06
2018-12-22T01:27:01.504Z,95339.56
2018-12-22T01:29:29.763Z,95332.66
2018-12-22T01:31:58.143Z,95324.10
2018-12-22T01:34:26.466Z,95322.53
2018-12-22T01:36:54.911Z,95326.22
2018-12-22T01:39:23.186Z,95313.42
2018-12-22T01:41:51.567Z,95320.34
2018-12-22T01:44:19.788Z,95315.00
2018-12-22T01:46:48.200Z,95309.64
2018-12-22T01:49:16.604Z,95314.69
2018-12-22T01:51:45.070Z,95342.03
2018-12-22T01:54:13.515Z,95305.41
2018-12-22T01:56:41.779Z,95311.56
2018-12-22T01:59:10.038Z,95318.78
2018-12-22T02:01:38.620Z,95294.56
2018-12-22T02:04:06.863Z,95312.95
2018-12-22T02:06:35.094Z,95278.84
2018-12-22T02:09:04.687Z,95286.01
2018-12-22T02:11:33.120Z,95296.93
2018-12-22T02:14:01.346Z,95303.93
2018-12-22T02:16:29.583Z,95294.04
2018-12-22T02:18:57.951Z,95301.27
2018-12-22T02:21:26.183Z,95297.98
2018-12-22T02:23:54.504Z,95302.86
2018-12-22T02:26:22.780Z,95286.50
2018-12-22T02:28:56.485Z,95288.59
2018-12-22T02:31:21.292Z,95284.11
2018-12-22T02:33:49.646Z,95306.07
2018-12-22T02:36:17.867Z,95294.22
2018-12-22T02:38:46.098Z,95284.67
2018-12-22T02:41:14.673Z,95277.72
2018-12-22T02:43:42.982Z,95282.01
2018-12-22T02:46:11.426Z,95266.25
2018-12-22T02:48:39.856Z,95271.83
2018-12-22T02:51:08.209Z,95274.04
2018-12-22T02:53:36.682Z,95271.36
2018-12-22T02:56:04.988Z,95278.83
2018-12-22T02:58:33.199Z,95262.04
2018-12-22T03:01:01.446Z,95264.79
2018-12-22T03:03:29.671Z,95261.29
2018-12-22T03:05:57.915Z,95258.33
2018-12-22T03:08:26.152Z,95270.67
2018-12-22T03:10:54.522Z,95275.77
2018-12-22T03:13:22.786Z,95274.68
2018-12-22T03:15:51.071Z,95255.20
2018-12-22T03:18:19.448Z,95296.05
2018-12-22T03:20:47.778Z,95273.66
2018-12-22T03:23:16.057Z,95282.66
2018-12-22T03:25:44.387Z,95275.66
2018-12-22T03:28:12.693Z,95260.77
2018-12-22T03:30:40.905Z,95257.23
2018-12-22T03:33:09.242Z,95257.24
2018-12-22T03:35:37.591Z,95262.63
2018-12-22T03:38:05.895Z,95250.25
2018-12-22T03:40:34.160Z,95254.34
2018-12-22T03:43:02.424Z,95247.94
2018-12-22T03:45:30.725Z,95251.17
2018-12-22T03:47:58.967Z,95241.30
2018-12-22T03:50:27.263Z,95252.56
2018-12-22T03:52:55.619Z,95246.89
2018-12-22T03:55:23.931Z,95249.06
2018-12-22T03:57:52.224Z,95240.53
2018-12-22T04:00:20.671Z,95245.37
2018-12-22T04:02:49.785Z,95246.70
2018-12-22T04:05:18.034Z,95238.44
2018-12-22T04:07:46.420Z,95260.64
2018-12-22T04:10:15.311Z,95254.50
2018-12-22T04:12:43.559Z,95243.80
2018-12-22T04:15:11.803Z,95247.30
2018-12-22T04:17:40.017Z,95234.49
2018-12-22T04:20:08.287Z,95230.74
2018-12-22T04:22:36.519Z,95231.28
2018-12-22T04:25:05.418Z,95231.52
2018-12-22T04:27:33.711Z,95221.91
2018-12-22T04:30:02.102Z,95223.83
2018-12-22T04:32:30.788Z,95236.11
2018-12-22T04:34:59.011Z,95219.31
2018-12-22T04:37:27.246Z,95225.20
2018-12-22T04:39:55.475Z,95218.22
2018-12-22T04:42:23.798Z,95283.99
2018-12-22T04:44:52.044Z,95243.38
2018-12-22T04:47:24.363Z,95234.85
2018-12-22T04:49:52.715Z,95242.59
2018-12-22T04:52:20.960Z,95225.23
2018-12-22T04:54:49.284Z,95239.13
2018-12-22T04:57:17.672Z,95244.50
2018-12-22T04:59:46.044Z,95246.11
2018-12-22T05:02:14.416Z,95238.61
2018-12-22T05:04:42.648Z,95243.16
2018-12-22T05:07:11.039Z,95250.94
2018-12-22T05:09:39.311Z,95285.94
2018-12-22T05:12:07.820Z,95256.27
2018-12-22T05:14:36.096Z,95263.22
2018-12-22T05:17:04.359Z,95255.99
2018-12-22T05:19:32.608Z,95274.97
2018-12-22T05:22:01.069Z,95268.59
2018-12-22T05:24:29.289Z,95254.95
2018-12-22T05:26:57.693Z,95257.61
2018-12-22T05:29:25.906Z,95253.91
2018-12-22T05:31:54.280Z,95257.91
2018-12-22T05:34:22.725Z,95254.95
2018-12-22T05:36:51.099Z,95256.02
2018-12-22T05:39:19.440Z,95253.37
2018-12-22T05:41:47.862Z,95274.50
2018-12-22T05:44:16.183Z,95268.08
2018-12-22T05:46:44.645Z,95302.59
2018-12-22T05:49:12.894Z,95267.27
2018-12-22T05:51:41.373Z,95277.72
2018-12-22T05:54:09.618Z,95286.27
2018-12-22T05:56:37.842Z,95290.81
2018-12-22T05:59:06.055Z,95316.48
2018-12-22T06:01:34.479Z,95306.34
2018-12-22T06:04:02.708Z,95317.84
2018-12-22T06:06:30.947Z,95279.58
2018-12-22T06:08:59.203Z,95286.55
2018-12-22T06:11:27.789Z,95299.36
2018-12-22T06:13:56.423Z,95307.61
2018-12-22T06:16:24.679Z,95276.57
2018-12-22T06:18:52.901Z,95296.92
2018-12-22T06:21:21.149Z,95299.30
2018-12-22T06:23:49.353Z,95303.03
2018-12-22T06:26:17.566Z,95317.75
2018-12-22T06:28:45.802Z,95300.36
2018-12-22T06:31:14.099Z,95303.86
2018-12-22T06:36:16.791Z,95306.55
2018-12-22T06:38:45.176Z,95301.78
2018-12-22T06:41:13.434Z,95293.69
2018-12-22T06:43:41.808Z,95308.95
2018-12-22T06:46:10.099Z,95309.00
2018-12-22T06:48:38.376Z,95298.59
2018-12-22T06:51:06.650Z,95329.36
2018-12-22T06:53:34.896Z,95314.91
2018-12-22T06:56:03.111Z,95326.41
2018-12-22T06:58:31.379Z,95313.02
2018-12-22T07:00:59.630Z,95333.62
2018-12-22T07:03:27.840Z,95333.33
2018-12-22T07:05:56.100Z,95316.77
2018-12-22T07:08:24.444Z,95319.75
2018-12-22T07:10:52.660Z,95319.98
2018-12-22T07:13:21.139Z,95295.63
2018-12-22T07:15:49.415Z,95308.22
2018-12-22T07:18:17.652Z,95352.88
2018-12-22T07:20:45.902Z,95316.80
2018-12-22T07:23:14.138Z,95365.75
2018-12-22T07:25:42.420Z,95312.27
2018-12-22T07:28:10.800Z,95309.58
2018-12-22T07:30:39.019Z,95280.43
2018-12-22T07:33:07.248Z,95310.66
2018-12-22T07:35:35.469Z,95310.36
2018-12-22T07:38:03.739Z,95305.00
2018-12-22T07:40:32.080Z,95328.83
2018-12-22T07:43:00.334Z,95321.58
2018-12-22T07:45:28.584Z,95317.56
2018-12-22T07:47:56.823Z,95310.08
2018-12-22T07:50:25.108Z,95302.60
2018-12-22T07:52:53.557Z,95311.17
2018-12-22T07:55:21.839Z,95334.48
2018-12-22T07:57:50.127Z,95334.77
2018-12-22T08:00:18.367Z,95360.42
2018-12-22T08:02:46.647Z,95354.83
2018-12-22T08:05:14.952Z,95369.25
2018-12-22T08:07:43.260Z,95353.77
2018-12-22T08:10:11.503Z,95370.08
2018-12-22T08:12:39.812Z,95399.25
2018-12-22T08:15:08.048Z,95417.97
2018-12-22T08:17:36.334Z,95406.17
2018-12-22T08:20:06.600Z,95406.95
2018-12-22T08:22:34.825Z,95403.73
2018-12-22T08:25:04.497Z,95419.52
2018-12-22T08:27:32.719Z,95418.73
2018-12-22T08:30:01.226Z,95414.70
2018-12-22T08:32:29.519Z,95427.52
2018-12-22T08:34:57.788Z,95416.31
2018-12-22T08:37:26.020Z,95388.21
2018-12-22T08:39:54.335Z,95399.44
2018-12-22T08:42:22.595Z,95406.94
2018-12-22T08:44:50.927Z,95414.17
2018-12-22T08:47:19.162Z,95438.23
2018-12-22T08:49:47.509Z,95435.50
2018-12-22T08:52:15.755Z,95459.55
2018-12-22T08:54:44.306Z,95452.81
2018-12-22T08:57:12.630Z,95454.36
2018-12-22T08:59:40.907Z,95477.16
2018-12-22T09:02:09.189Z,95477.85
2018-12-22T09:04:37.471Z,95509.14
2018-12-22T09:07:05.718Z,95507.56
2018-12-22T09:09:33.963Z,95496.87
2018-12-22T09:12:02.185Z,95502.52
2018-12-22T09:14:30.419Z,95499.85
2018-12-22T09:16:58.636Z,95507.70
2018-12-22T09:19:26.874Z,95502.59
2018-12-22T09:21:55.134Z,95525.85
2018-12-22T09:24:23.360Z,95518.05
2018-12-22T09:26:51.642Z,95516.66
2018-12-22T09:29:19.960Z,95543.66
2018-12-22T09:31:48.311Z,95515.28
2018-12-22T09:34:16.571Z,95525.75
2018-12-22T09:36:44.818Z,95546.33
2018-12-22T09:39:13.093Z,95570.63
2018-12-22T09:41:41.395Z,95553.59
2018-12-22T09:44:09.711Z,95533.20
2018-12-22T09:46:38.014Z,95554.66
2018-12-22T09:49:06.331Z,95556.39
2018-12-22T09:51:34.549Z,95568.64
2018-12-22T09:54:02.776Z,95557.41
2018-12-22T09:56:31.052Z,95565.73
2018-12-22T09:58:59.355Z,95559.91
2018-12-22T10:01:27.592Z,95590.48
2018-12-22T10:03:55.860Z,95562.05
2018-12-22T10:06:24.089Z,95570.17
2018-12-22T10:08:52.507Z,95552.80
2018-12-22T10:11:20.735Z,95561.36
2018-12-22T10:13:48.987Z,95570.41
2018-12-22T10:16:17.217Z,95564.51
2018-12-22T10:18:45.488Z,95568.27
2018-12-22T10:21:13.758Z,95575.77
2018-12-22T10:23:42.062Z,95578.70
2018-12-22T10:26:10.367Z,95557.34
2018-12-22T10:28:38.595Z,95583.33
2018-12-22T10:31:06.891Z,95554.89
2018-12-22T10:33:35.119Z,95595.81
2018-12-22T10:36:04.032Z,95587.53
2018-12-22T10:38:32.362Z,95568.27
2018-12-22T10:41:00.656Z,95564.87
2018-12-22T10:43:28.911Z,95552.41
2018-12-22T10:45:57.163Z,95556.18
2018-12-22T10:48:25.433Z,95564.47
2018-12-22T10:50:54.258Z,95554.64
2018-12-22T10:53:22.515Z,95569.34
2018-12-22T10:55:50.870Z,95557.05
2018-12-22T10:58:19.192Z,95558.38
2018-12-22T11:00:47.577Z,95565.28
2018-12-22T11:03:15.839Z,95551.37
2018-12-22T11:05:44.055Z,95564.92
2018-12-22T11:08:12.283Z,95568.39
2018-12-22T11:10:40.558Z,95572.19
2018-12-22T11:13:08.806Z,95572.73
2018-12-22T11:15:37.043Z,95575.04
2018-12-22T11:18:05.300Z,95596.48
2018-12-22T11:20:33.715Z,95561.94
2018-12-22T11:23:01.999Z,95583.66
2018-12-22T11:25:30.215Z,95582.27
2018-12-22T11:27:58.512Z,95592.44
2018-12-22T11:30:26.744Z,95572.36
2018-12-22T11:32:54.992Z,95576.41
2018-12-22T11:35:23.282Z,95579.66
2018-12-22T11:37:51.536Z,95572.19
2018-12-22T11:40:19.791Z,95578.58
2018-12-22T11:42:48.057Z,95590.63
2018-12-22T11:45:16.336Z,95582.50
2018-12-22T11:47:48.261Z,95593.66
2018-12-22T11:50:23.815Z,95601.94
2018-12-22T11:52:52.338Z,95580.04
2018-12-22T11:55:20.599Z,95592.53
2018-12-22T11:57:48.901Z,95597.38
2018-12-22T12:00:17.240Z,95585.64
2018-12-22T12:02:45.462Z,95589.30
2018-12-22T12:05:13.886Z,95606.67
2018-12-22T12:07:42.379Z,95613.59
2018-12-22T12:10:10.767Z,95616.00
2018-12-22T12:12:39.050Z,95618.92
2018-12-22T12:15:14.610Z,95637.92
2018-12-22T12:20:45.456Z,95615.69
2018-12-22T12:23:13.737Z,95637.53
2018-12-22T12:25:42.025Z,95639.61
2018-12-22T12:28:10.278Z,95650.05
2018-12-22T12:30:38.565Z,95651.94
2018-12-22T12:33:06.827Z,95656.89
2018-12-22T12:35:35.119Z,95662.23
2018-12-22T12:38:03.366Z,95652.91
2018-12-22T12:40:31.696Z,95659.69
2018-12-22T12:42:59.971Z,95651.94
2018-12-22T12:45:28.219Z,95664.42
2018-12-22T12:47:56.483Z,95666.08
2018-12-22T12:50:25.144Z,95673.70
2018-12-22T12:52:53.467Z,95672.00
2018-12-22T12:55:21.751Z,95673.73
2018-12-22T12:57:49.981Z,95677.16
2018-12-22T13:00:20.838Z,95665.32
2018-12-22T13:02:49.114Z,95667.11
2018-12-22T13:05:17.379Z,95660.66
2018-12-22T13:07:45.599Z,95690.84
2018-12-22T13:10:13.867Z,95677.94
2018-12-22T13:13:04.676Z,95664.47
2018-12-22T13:15:33.010Z,95679.35
2018-12-22T13:18:01.394Z,95667.33
2018-12-22T13:20:29.747Z,95664.84
2018-12-22T13:22:58.043Z,95673.27
2018-12-22T13:25:26.298Z,95657.72
2018-12-22T13:27:54.529Z,95672.19
2018-12-22T13:30:22.779Z,95682.69
2018-12-22T13:32:51.031Z,95688.06
2018-12-22T13:35:19.369Z,95689.92
2018-12-22T13:37:47.635Z,95693.48
2018-12-22T13:40:16.013Z,95697.94
2018-12-22T13:42:44.258Z,95696.30
2018-12-22T13:45:12.590Z,95703.28
2018-12-22T13:47:41.106Z,95709.95
2018-12-22T13:50:13.900Z,95716.97
2018-12-22T13:52:42.175Z,95709.88
2018-12-22T13:55:10.937Z,95712.70
2018-12-22T13:57:43.741Z,95727.36
2018-12-22T14:00:23.029Z,95716.34
2018-12-22T14:02:51.315Z,95736.11
2018-12-22T14:05:28.360Z,95717.94
2018-12-22T14:07:56.658Z,95729.95
2018-12-22T14:10:24.886Z,95760.94
2018-12-22T14:12:53.380Z,95736.38
2018-12-22T14:15:25.231Z,95737.71
2018-12-22T14:18:08.688Z,95744.77
2018-12-22T14:20:36.938Z,95742.57
2018-12-22T14:23:05.190Z,95751.03
2018-12-22T14:25:33.434Z,95740.13
2018-12-22T14:28:01.652Z,95744.51
2018-12-22T14:30:29.961Z,95756.86
2018-12-22T14:32:58.272Z,95773.23
2018-12-22T14:35:31.991Z,95766.22
2018-12-22T14:38:00.227Z,95753.59
2018-12-22T14:40:28.676Z,95767.95
2018-12-22T14:42:57.076Z,95770.30
2018-12-22T14:45:25.474Z,95774.12
2018-12-22T14:47:53.728Z,95780.88
2018-12-22T14:50:21.988Z,95782.47
2018-12-22T14:52:50.268Z,95793.73
2018-12-22T14:55:18.576Z,95822.07
2018-12-22T14:57:56.763Z,95820.09
2018-12-22T15:00:25.019Z,95823.48
2018-12-22T15:02:53.329Z,95835.63
2018-12-22T15:05:21.699Z,95827.54
2018-12-22T15:07:49.975Z,95831.19
2018-12-22T15:10:18.239Z,95829.81
2018-12-22T15:12:46.567Z,95831.39
2018-12-22T15:15:14.901Z,95838.75
2018-12-22T15:17:43.968Z,95841.83
2018-12-22T15:20:34.084Z,95849.05
2018-12-22T15:23:05.044Z,95848.17
2018-12-22T15:25:33.311Z,95839.21
2018-12-22T15:28:01.561Z,95850.25
2018-12-22T15:30:29.863Z,95845.25
2018-12-22T15:32:58.108Z,95845.19
2018-12-22T15:35:26.388Z,95851.47
2018-12-22T15:37:54.608Z,95847.31
2018-12-22T15:40:23.066Z,95854.71
2018-12-22T15:42:51.291Z,95854.08
2018-12-22T15:45:19.697Z,95850.96
2018-12-22T15:47:47.953Z,95859.67
2018-12-22T15:50:31.363Z,95849.59
2018-12-22T15:52:59.960Z,95853.26
2018-12-22T15:55:28.261Z,95853.58
2018-12-22T15:57:56.551Z,95840.48
2018-12-22T16:00:24.924Z,95847.21
2018-12-22T16:02:53.651Z,95847.26
2018-12-22T16:05:22.069Z,95859.36
2018-12-22T16:07:50.300Z,95863.48
2018-12-22T16:10:18.635Z,95864.38
2018-12-22T16:12:46.926Z,95857.31
2018-12-22T16:15:22.361Z,95863.02
2018-12-22T16:17:50.737Z,95865.38
2018-12-22T16:20:19.020Z,95866.09
2018-12-22T16:22:55.506Z,95862.19
2018-12-22T16:25:23.776Z,95862.67
2018-12-22T16:27:57.671Z,95867.69
2018-12-22T16:30:37.223Z,95866.25
2018-12-22T16:33:05.500Z,95861.48
2018-12-22T16:35:33.845Z,95868.06
2018-12-22T16:38:02.252Z,95876.22
2018-12-22T16:40:30.628Z,95871.13
2018-12-22T16:42:59.394Z,95878.61
2018-12-22T16:45:27.782Z,95867.60
2018-12-22T16:47:56.027Z,95855.60
2018-12-22T16:50:24.779Z,95872.53
2018-12-22T16:52:53.103Z,95891.96
2018-12-22T16:55:21.401Z,95890.73
2018-12-22T16:58:04.805Z,95895.31
2018-12-22T17:00:41.703Z,95901.63
2018-12-22T17:03:10.921Z,95900.21
2018-12-22T17:05:39.595Z,95901.48
2018-12-22T17:08:07.979Z,95903.69
2018-12-22T17:10:36.351Z,95897.48
2018-12-22T17:13:04.659Z,95911.11
2018-12-22T17:15:32.981Z,95913.53
2018-12-22T17:18:01.295Z,95902.30
2018-12-22T17:20:30.259Z,95903.57
2018-12-22T17:23:10.965Z,95918.09
2018-12-22T17:25:40.974Z,95922.58
2018-12-22T17:28:09.259Z,95941.45
2018-12-22T17:30:37.739Z,95931.73
2018-12-22T17:33:06.623Z,95934.45
2018-12-22T17:35:35.724Z,95933.45
2018-12-22T17:38:03.990Z,95940.38
2018-12-22T17:40:32.194Z,95930.11
2018-12-22T17:43:01.048Z,95932.08
2018-12-22T17:45:29.253Z,95939.84
2018-12-22T17:47:57.527Z,95937.77
2018-12-22T17:50:25.767Z,95952.80
2018-12-22T17:52:54.075Z,95948.23
2018-12-22T17:55:22.428Z,95947.91
2018-12-22T17:57:50.702Z,95953.92
2018-12-22T18:00:20.354Z,95958.25
2018-12-22T18:02:48.809Z,95957.52
2018-12-22T18:05:17.059Z,95970.41
2018-12-22T18:07:45.342Z,95983.95
2018-12-22T18:10:13.591Z,95970.30
2018-12-22T18:12:41.910Z,95978.12
2018-12-22T18:15:23.759Z,95972.04
2018-12-22T18:17:52.193Z,95972.83
2018-12-22T18:20:20.444Z,95971.63
2018-12-22T18:22:48.725Z,95976.63
2018-12-22T18:25:21.371Z,95970.26
2018-12-22T18:27:52.402Z,95988.48
2018-12-22T18:30:20.744Z,95983.51
2018-12-22T18:32:49.107Z,95973.30
2018-12-22T18:35:17.315Z,95980.91
2018-12-22T18:37:45.751Z,95976.34
2018-12-22T18:40:19.329Z,95991.61
2018-12-22T18:42:48.133Z,95990.98
2018-12-22T18:45:16.473Z,95990.64
2018-12-22T18:47:45.162Z,95999.14
2018-12-22T18:50:21.525Z,95995.79
2018-12-22T18:52:49.827Z,95996.95
2018-12-22T18:55:18.145Z,95999.09
2018-12-22T18:57:49.901Z,95991.39
2018-12-22T19:00:22.599Z,95995.77
2018-12-22T19:02:51.501Z,95987.91
2018-12-22T19:05:20.674Z,95990.05
2018-12-22T19:07:49.538Z,95986.73
2018-12-22T19:10:25.820Z,95986.25
2018-12-22T19:12:56.146Z,95985.44
2018-12-22T19:15:24.355Z,95989.36
2018-12-22T19:17:52.569Z,95991.03
2018-12-22T19:20:27.427Z,95991.44
2018-12-22T19:22:55.662Z,95992.50
2018-12-22T19:25:24.677Z,96005.41
2018-12-22T19:27:52.891Z,96006.43
2018-12-22T19:30:21.103Z,95998.48
2018-12-22T19:32:49.427Z,96018.00
2018-12-22T19:35:17.691Z,96011.45
2018-12-22T19:37:45.902Z,96030.95
2018-12-22T19:40:14.183Z,96028.42
2018-12-22T19:42:42.401Z,96027.91
2018-12-22T19:45:10.871Z,96033.61
2018-12-22T19:47:39.092Z,96037.47
2018-12-22T19:50:07.863Z,96039.03
2018-12-22T19:52:36.146Z,96044.02
2018-12-22T19:55:06.536Z,96053.05
2018-12-22T19:57:34.790Z,96051.95
2018-12-22T20:00:03.109Z,96051.61
2018-12-22T20:02:31.364Z,96053.99
2018-12-22T20:04:59.764Z,96050.34
2018-12-22T20:07:27.967Z,96052.90
2018-12-22T20:09:56.323Z,96048.73
2018-12-22T20:12:24.535Z,96046.75
2018-12-22T20:14:52.774Z,96047.87
2018-12-22T20:17:21.058Z,96048.45
2018-12-22T20:19:49.261Z,96045.93
2018-12-22T20:22:17.593Z,96045.48
2018-12-22T20:24:45.822Z,96050.06
2018-12-22T20:27:14.031Z,96048.77
2018-12-22T20:29:42.241Z,96050.65
2018-12-22T20:32:10.459Z,96050.86
2018-12-22T20:34:38.778Z,96053.83
2018-12-22T20:37:07.054Z,96056.35
2018-12-22T20:39:35.338Z,96054.27
2018-12-22T20:42:03.616Z,96055.43
2018-12-22T20:44:31.881Z,96055.19
2018-12-22T20:47:00.154Z,96059.91
2018-12-22T20:49:28.447Z,96045.25
2018-12-22T20:51:56.791Z,96044.02
2018-12-22T20:54:25.006Z,96043.06
2018-12-22T20:56:53.268Z,96038.69
2018-12-22T20:59:21.479Z,96035.06
2018-12-22T21:01:49.836Z,96027.41
2018-12-22T21:04:19.919Z,96026.25
2018-12-22T21:06:48.394Z,96037.94
2018-12-22T21:09:16.696Z,96032.41
2018-12-22T21:11:44.943Z,96039.45
2018-12-22T21:14:13.160Z,96052.66
2018-12-22T21:16:41.487Z,96048.02
2018-12-22T21:19:09.703Z,96044.20
2018-12-22T21:21:38.003Z,96043.27
2018-12-22T21:24:06.239Z,96037.64
2018-12-22T21:26:34.531Z,96036.44
2018-12-22T21:29:03.014Z,96039.21
2018-12-22T21:31:31.213Z,96039.66
2018-12-22T21:33:59.441Z,96038.19
2018-12-22T21:36:27.731Z,96046.38
2018-12-22T21:38:55.953Z,96056.86
2018-12-22T21:41:24.195Z,96052.63
2018-12-22T21:43:52.486Z,96057.52
2018-12-22T21:46:20.708Z,96072.27
2018-12-22T21:48:49.000Z,96064.13
2018-12-22T21:51:17.241Z,96076.26
2018-12-22T21:53:45.546Z,96079.50
2018-12-22T21:56:13.813Z,96071.95
2018-12-22T21:58:42.085Z,96084.66
2018-12-22T22:01:10.319Z,96078.52
2018-12-22T22:03:38.881Z,96074.63
2018-12-22T22:06:07.145Z,96080.49
2018-12-22T22:08:35.480Z,96089.00
2018-12-22T22:11:03.727Z,96073.84
2018-12-22T22:13:31.985Z,96069.67
2018-12-22T22:16:00.405Z,96073.28
2018-12-22T22:18:28.613Z,96067.96
2018-12-22T22:20:56.908Z,96076.16
2018-12-22T22:23:25.132Z,96079.34
2018-12-22T22:25:53.340Z,96071.78
2018-12-22T22:28:21.555Z,96082.25
2018-12-22T22:30:49.761Z,96082.25
2018-12-22T22:33:18.023Z,96084.83
2018-12-22T22:35:46.255Z,96089.00
2018-12-22T22:38:14.487Z,96091.39
2018-12-22T22:40:42.735Z,96090.71
2018-12-22T22:43:11.358Z,96089.31
2018-12-22T22:45:39.647Z,96086.34
2018-12-22T22:48:07.859Z,96087.60
2018-12-22T22:50:36.091Z,96080.84
2018-12-22T22:53:04.359Z,96080.77
2018-12-22T22:55:32.661Z,96072.16
2018-12-22T22:58:00.975Z,96067.21
2018-12-22T23:03:18.578Z,96090.55
2018-12-22T23:05:46.785Z,96078.31
2018-12-22T23:08:14.996Z,96078.08
2018-12-22T23:10:43.227Z,96080.22
2018-12-22T23:13:11.422Z,96098.63
2018-12-22T23:15:39.633Z,96101.30
2018-12-22T23:18:07.959Z,96106.39
2018-12-22T23:20:36.181Z,96110.86
2018-12-22T23:23:04.427Z,96106.97
2018-12-22T23:25:32.651Z,96094.88
2018-12-22T23:28:00.893Z,96094.33
2018-12-22T23:30:29.410Z,96086.72
2018-12-22T23:32:57.661Z,96083.51
2018-12-22T23:35:25.979Z,96082.89
2018-12-22T23:37:54.213Z,96083.51
2018-12-22T23:40:22.624Z,96082.41
2018-12-22T23:42:50.851Z,96088.63
2018-12-22T23:45:19.071Z,96085.89
2018-12-22T23:47:47.346Z,96077.25
2018-12-22T23:50:15.600Z,96085.69
2018-12-22T23:52:43.908Z,96081.25
2018-12-22T23:55:12.224Z,96094.12
2018-12-22T23:57:40.567Z,96095.97
